KECP

Northwest Florida Beaches International Airport

Panama City, Florida, USA
METAR KECP 180153Z 00000KT 10SM CLR 26/24 A3014 RMK AO2 RAE0055B12E28 SLP217 P0000 T02560239
Observed Flight Rules
Aug-18 @ 01:53 UTC (37 minutes ago) Visual Flight Rules
Visibility Clouds
10 miles
  • Clear skies
Temperatures Readings Precipitation
Current 26°C / 79°F
Dewpoint 24°C / 75°F
Humidity 89%
Altimeter 30.14" Hg
Pressure 1021.7 hPa
Elevation 21
Current Rain 0.005
METAR KECP 180153Z 00000KT 10SM CLR 26/24 A3014 RMK AO2 RAE0055B12E28 SLP217 P0000 T02560239
Observed Flight Rules
Aug-18 @ 01:53 UTC
(37 minutes ago)
VFR
Clouds
  • Clear skies
Temperature Dewpoint
26°C / 79°F 24°C / 75°F
Humidity Altimeter Pressure
89% 30.14" Hg 1021.7 hPa
Current Rain
0.005